Time;durP1;ratioP1;P1;durP2;ratioP2;P2;SDS_P1;SDS_P2;PMS_P1;PMS_P2;Temp;Humidity;BMP_temperature;BMP_pressure;BME280_temperature;BME280_humidity;BME280_pressure;Samples;Min_cycle;Max_cycle;Signal;HPM_P1;HPM_P2
2022/04/07 00:01:06;;;;;;;64.10;8.85;;;6.90;99.90;;;;;;5039638;28;20053;-67
2022/04/07 00:03:31;;;;;;;90.65;10.65;;;7.00;99.90;;;;;;5039707;28;20470;-67
2022/04/07 00:05:57;;;;;;;63.33;8.57;;;6.90;99.90;;;;;;5039677;28;20037;-67
2022/04/07 00:08:22;;;;;;;71.38;8.23;;;7.00;99.90;;;;;;5039600;28;20093;-67
2022/04/07 00:10:48;;;;;;;61.40;9.73;;;6.90;99.90;;;;;;5039794;28;20394;-67
2022/04/07 00:13:14;;;;;;;52.58;8.63;;;6.90;99.90;;;;;;5039557;28;20065;-67
2022/04/07 00:15:40;;;;;;;74.00;8.30;;;6.90;99.90;;;;;;5039613;28;20473;-67
2022/04/07 00:18:06;;;;;;;69.10;7.90;;;6.90;99.90;;;;;;5039569;28;20033;-67
2022/04/07 00:20:32;;;;;;;67.65;8.38;;;6.90;99.90;;;;;;5039660;28;20021;-67
2022/04/07 00:22:58;;;;;;;66.90;10.93;;;6.90;99.90;;;;;;5039515;28;20021;-67
2022/04/07 00:25:25;;;;;;;71.85;10.13;;;6.90;99.90;;;;;;5039537;28;20495;-67
2022/04/07 00:27:51;;;;;;;69.53;8.70;;;6.90;99.90;;;;;;5039439;28;20025;-67
2022/04/07 00:30:20;;;;;;;59.85;9.88;;;6.90;99.90;;;;;;5039400;28;20048;-67
2022/04/07 00:32:46;;;;;;;82.57;10.10;;;6.90;99.90;;;;;;5039445;28;20026;-67
2022/04/07 00:35:12;;;;;;;75.10;10.63;;;7.00;99.90;;;;;;5039680;28;20041;-67
2022/04/07 00:37:38;;;;;;;55.45;7.18;;;7.10;99.90;;;;;;5039381;28;20509;-67
2022/04/07 00:40:06;;;;;;;79.03;8.93;;;7.10;99.90;;;;;;5039229;28;20057;-67
2022/04/07 00:42:31;;;;;;;52.95;7.05;;;7.10;99.90;;;;;;5039268;28;20036;-67
2022/04/07 00:44:57;;;;;;;78.55;8.52;;;7.00;99.90;;;;;;5039581;28;20405;-67
2022/04/07 00:47:24;;;;;;;62.50;8.02;;;7.00;99.90;;;;;;5039284;28;20021;-67
2022/04/07 00:49:49;;;;;;;59.53;7.85;;;7.00;99.90;;;;;;5039302;28;20017;-67
2022/04/07 00:52:17;;;;;;;59.85;8.57;;;7.00;99.90;;;;;;5039255;28;20032;-67
2022/04/07 00:54:42;;;;;;;91.72;10.15;;;7.00;99.90;;;;;;5039132;28;20021;-67
2022/04/07 00:57:09;;;;;;;72.60;9.07;;;7.00;99.90;;;;;;5036158;28;20032;-67
2022/04/07 00:59:38;;;;;;;63.60;8.27;;;7.00;99.90;;;;;;5036030;28;20133;-67
2022/04/07 01:02:03;;;;;;;66.30;9.63;;;7.10;99.90;;;;;;5036253;28;20432;-67
2022/04/07 01:04:29;;;;;;;52.92;8.93;;;7.10;99.90;;;;;;5035999;28;20026;-67
2022/04/07 01:06:55;;;;;;;55.53;9.32;;;7.10;99.90;;;;;;5035997;28;20072;-67
2022/04/07 01:09:21;;;;;;;56.13;8.10;;;7.10;99.90;;;;;;5035898;28;20092;-67
2022/04/07 01:11:48;;;;;;;49.13;8.15;;;7.20;99.90;;;;;;5035917;28;20029;-67
2022/04/07 01:14:13;;;;;;;41.05;7.85;;;7.10;99.90;;;;;;5035835;28;20025;-67
2022/04/07 01:16:40;;;;;;;39.70;7.30;;;7.10;99.90;;;;;;5035803;28;20021;-67
2022/04/07 01:19:06;;;;;;;31.40;6.55;;;7.10;99.90;;;;;;5035737;28;20117;-67
2022/04/07 01:21:34;;;;;;;43.88;7.32;;;7.00;99.90;;;;;;5035630;28;20036;-67
2022/04/07 01:24:06;;;;;;;35.25;5.57;;;7.00;99.90;;;;;;5035639;28;20022;-67
2022/04/07 01:26:37;;;;;;;28.02;6.88;;;6.90;99.90;;;;;;5036218;28;20021;-67
2022/04/07 01:29:04;;;;;;;29.30;6.57;;;6.90;99.90;;;;;;5035720;28;20025;-67
2022/04/07 01:31:31;;;;;;;34.17;4.47;;;6.80;99.90;;;;;;5035530;28;20482;-67
2022/04/07 01:33:58;;;;;;;20.98;4.68;;;6.80;99.90;;;;;;5035742;28;20108;-67
2022/04/07 01:36:29;;;;;;;17.10;3.70;;;6.80;99.90;;;;;;5035362;28;20036;-67
2022/04/07 01:38:56;;;;;;;24.08;3.72;;;6.80;99.90;;;;;;5035546;28;20083;-67
2022/04/07 01:41:22;;;;;;;15.43;3.42;;;6.80;99.90;;;;;;5035268;28;20044;-67
2022/04/07 01:43:50;;;;;;;14.18;3.22;;;6.80;99.90;;;;;;5035597;28;20474;-67
2022/04/07 01:46:17;;;;;;;11.73;3.25;;;6.70;99.90;;;;;;5036074;28;20394;-67
2022/04/07 01:48:44;;;;;;;37.53;3.72;;;6.70;99.90;;;;;;5035837;28;20363;-67
2022/04/07 01:51:11;;;;;;;18.20;3.30;;;6.70;99.90;;;;;;5035190;28;20025;-67
2022/04/07 01:53:38;;;;;;;28.23;4.18;;;6.70;99.90;;;;;;5035131;28;20025;-67
2022/04/07 01:56:04;;;;;;;18.88;3.55;;;6.70;99.90;;;;;;5035343;28;20072;-67
2022/04/07 01:58:30;;;;;;;25.58;4.15;;;6.70;99.90;;;;;;5035104;28;20025;-67
2022/04/07 02:00:55;;;;;;;21.20;3.70;;;6.70;99.90;;;;;;5034918;28;20065;-67
2022/04/07 02:03:21;;;;;;;22.23;4.00;;;6.70;99.90;;;;;;5034924;28;20052;-67
2022/04/07 02:05:47;;;;;;;23.98;4.43;;;6.70;99.90;;;;;;5035093;28;20461;-67
2022/04/07 02:08:12;;;;;;;32.08;7.22;;;6.80;99.90;;;;;;5034899;28;20021;-67
2022/04/07 02:10:38;;;;;;;22.20;6.18;;;6.80;99.90;;;;;;5034927;28;20402;-67
2022/04/07 02:13:04;;;;;;;22.67;5.72;;;6.80;99.90;;;;;;5034882;28;20026;-67
2022/04/07 02:15:29;;;;;;;39.45;8.70;;;6.90;99.90;;;;;;5034943;28;20470;-68
2022/04/07 02:17:55;;;;;;;32.25;8.23;;;6.90;99.90;;;;;;5035046;28;20033;-67
2022/04/07 02:20:21;;;;;;;23.70;8.70;;;6.90;99.90;;;;;;5034694;28;20434;-67
2022/04/07 02:22:46;;;;;;;22.00;7.63;;;7.00;99.90;;;;;;5034551;28;20026;-67
2022/04/07 02:25:12;;;;;;;22.33;7.97;;;7.10;99.90;;;;;;5034475;28;20492;-67
2022/04/07 02:27:40;;;;;;;18.25;8.32;;;7.10;99.90;;;;;;5034734;28;20043;-67
2022/04/07 02:30:07;;;;;;;25.27;9.55;;;7.10;99.90;;;;;;5034398;28;20029;-67
2022/04/07 02:32:33;;;;;;;33.28;11.98;;;7.10;99.90;;;;;;5034597;28;20364;-67
2022/04/07 02:34:59;;;;;;;37.78;12.25;;;7.20;99.90;;;;;;5034344;28;20097;-67
2022/04/07 02:37:25;;;;;;;35.90;12.52;;;7.20;99.90;;;;;;5034534;28;20060;-67
2022/04/07 02:39:52;;;;;;;31.65;12.73;;;7.20;99.90;;;;;;5034173;28;20100;-67
2022/04/07 02:42:17;;;;;;;41.63;13.18;;;7.30;99.90;;;;;;5034124;28;20029;-67
2022/04/07 02:44:43;;;;;;;31.77;12.13;;;7.30;99.90;;;;;;5034291;28;20114;-68
2022/04/07 02:47:08;;;;;;;47.90;15.45;;;7.30;99.90;;;;;;5034606;28;20097;-67
2022/04/07 02:49:34;;;;;;;52.30;17.05;;;7.40;99.90;;;;;;5034480;28;20029;-67
2022/04/07 02:51:59;;;;;;;38.80;17.40;;;7.40;99.90;;;;;;5034229;28;20025;-67
2022/04/07 02:54:25;;;;;;;46.92;18.90;;;7.50;99.90;;;;;;5033945;28;20125;-67
2022/04/07 02:56:50;;;;;;;47.28;20.20;;;7.60;99.90;;;;;;5033915;28;20545;-67
2022/04/07 02:59:16;;;;;;;47.80;20.00;;;7.70;99.90;;;;;;5033811;28;20025;-67
2022/04/07 03:01:43;;;;;;;45.40;20.00;;;7.70;99.90;;;;;;5034291;28;20030;-67
2022/04/07 03:04:09;;;;;;;51.25;20.88;;;7.70;99.90;;;;;;5033792;28;20543;-67
2022/04/07 03:06:35;;;;;;;58.75;21.23;;;7.70;99.90;;;;;;5033755;28;20105;-67
2022/04/07 03:09:00;;;;;;;46.40;18.95;;;7.80;99.90;;;;;;5033526;28;20112;-67
2022/04/07 03:11:26;;;;;;;53.40;20.63;;;7.80;99.90;;;;;;5034024;28;20052;-67
2022/04/07 03:13:52;;;;;;;41.72;18.00;;;7.80;99.90;;;;;;5033750;28;20026;-67
2022/04/07 03:16:17;;;;;;;46.08;17.75;;;7.70;99.90;;;;;;5033875;28;20025;-67
2022/04/07 03:18:43;;;;;;;57.40;17.45;;;7.80;99.90;;;;;;5015848;28;20480;-67
2022/04/07 03:21:08;;;;;;;48.20;15.90;;;7.80;99.90;;;;;;5033222;28;20040;-67
2022/04/07 03:23:34;;;;;;;49.60;17.42;;;7.80;99.90;;;;;;5033623;28;20022;-67
2022/04/07 03:26:01;;;;;;;48.92;14.82;;;7.90;99.90;;;;;;5033481;28;20061;-67
2022/04/07 03:28:26;;;;;;;39.85;15.00;;;7.90;99.90;;;;;;5033642;28;20036;-67
2022/04/07 03:30:52;;;;;;;53.42;15.45;;;7.90;99.90;;;;;;5033397;28;20021;-67
2022/04/07 03:33:17;;;;;;;53.22;16.65;;;7.90;99.90;;;;;;5033395;28;20037;-67
2022/04/07 03:35:43;;;;;;;35.63;14.05;;;7.90;99.90;;;;;;5033347;28;20025;-67
2022/04/07 03:38:09;;;;;;;40.38;15.07;;;7.90;99.90;;;;;;5033283;28;20033;-68
2022/04/07 03:40:35;;;;;;;41.78;14.32;;;7.90;99.90;;;;;;5033249;28;20478;-67
2022/04/07 03:43:03;;;;;;;37.58;13.13;;;8.00;99.90;;;;;;5033319;28;20100;-67
2022/04/07 03:45:29;;;;;;;23.92;12.38;;;7.90;99.90;;;;;;5033558;28;20018;-67
2022/04/07 03:47:55;;;;;;;43.22;13.38;;;7.90;99.90;;;;;;5033271;28;20508;-67
2022/04/07 03:50:21;;;;;;;37.72;13.82;;;7.90;99.90;;;;;;5033143;28;20552;-67
2022/04/07 03:52:46;;;;;;;35.30;12.93;;;7.90;99.90;;;;;;5033228;28;20484;-67
2022/04/07 03:55:12;;;;;;;30.15;13.13;;;7.90;99.90;;;;;;5033448;28;20044;-67
2022/04/07 03:57:37;;;;;;;32.08;13.30;;;7.90;99.90;;;;;;5033148;28;20105;-67
2022/04/07 04:00:05;;;;;;;32.85;12.07;;;7.90;99.90;;;;;;5033104;28;20459;-67
2022/04/07 04:02:31;;;;;;;34.38;14.38;;;7.90;99.90;;;;;;5033046;28;20017;-67
2022/04/07 04:04:56;;;;;;;43.50;13.40;;;7.90;99.90;;;;;;5033369;28;20021;-67
2022/04/07 04:07:22;;;;;;;35.63;11.68;;;7.90;99.90;;;;;;5033344;28;20021;-67
2022/04/07 04:09:47;;;;;;;38.90;11.32;;;7.90;99.90;;;;;;5033135;28;20033;-67
2022/04/07 04:12:13;;;;;;;36.22;10.52;;;7.90;99.90;;;;;;5033280;28;20041;-67
2022/04/07 04:14:38;;;;;;;40.60;9.85;;;7.90;99.90;;;;;;5033268;28;20025;-68
2022/04/07 04:17:04;;;;;;;27.60;8.43;;;7.80;99.90;;;;;;5033227;28;20033;-67
2022/04/07 04:19:30;;;;;;;26.30;7.85;;;7.70;99.90;;;;;;5033078;28;20136;-67
2022/04/07 04:21:56;;;;;;;33.85;9.80;;;7.70;99.90;;;;;;5032839;28;20053;-67
2022/04/07 04:24:21;;;;;;;27.35;9.65;;;7.70;99.90;;;;;;5032904;28;20028;-67
2022/04/07 04:26:47;;;;;;;19.52;6.60;;;7.60;99.90;;;;;;5033198;28;20029;-67
2022/04/07 04:29:13;;;;;;;28.85;8.30;;;7.60;99.90;;;;;;5032784;28;20104;-67
2022/04/07 04:31:38;;;;;;;25.15;8.70;;;7.60;99.90;;;;;;5033419;28;20030;-67
2022/04/07 04:34:04;;;;;;;19.90;7.60;;;7.60;99.90;;;;;;5036796;28;20030;-67
2022/04/07 04:36:30;;;;;;;22.63;7.18;;;7.60;99.90;;;;;;5036601;28;20037;-67
2022/04/07 04:38:55;;;;;;;25.08;7.07;;;7.60;99.90;;;;;;5036815;28;20394;-67
2022/04/07 04:41:21;;;;;;;28.15;7.13;;;7.60;99.90;;;;;;5036894;28;20079;-67
2022/04/07 04:43:46;;;;;;;26.80;7.97;;;7.50;99.90;;;;;;5036532;28;20101;-67
2022/04/07 04:46:12;;;;;;;30.95;9.10;;;7.50;99.90;;;;;;5036379;28;20034;-67
2022/04/07 04:48:38;;;;;;;40.60;8.02;;;7.50;99.90;;;;;;5036558;28;20105;-67
2022/04/07 04:51:04;;;;;;;39.30;6.63;;;7.50;99.90;;;;;;5036456;28;20025;-67
2022/04/07 04:53:30;;;;;;;30.30;6.68;;;7.50;99.90;;;;;;5036251;28;20026;-67
2022/04/07 04:55:56;;;;;;;23.88;5.78;;;7.50;99.90;;;;;;5036206;28;20033;-67
2022/04/07 04:58:22;;;;;;;31.38;7.30;;;7.50;99.90;;;;;;5036137;28;20025;-67
2022/04/07 05:00:48;;;;;;;28.58;6.18;;;7.40;99.90;;;;;;5036328;28;20030;-67
2022/04/07 05:03:14;;;;;;;44.67;5.57;;;7.50;99.90;;;;;;5036397;28;20358;-67
2022/04/07 05:05:39;;;;;;;29.42;4.93;;;7.50;99.90;;;;;;5036069;28;20033;-67
2022/04/07 05:08:05;;;;;;;36.03;4.53;;;7.50;99.90;;;;;;5036069;28;20022;-67
2022/04/07 05:10:30;;;;;;;28.88;5.30;;;7.40;99.90;;;;;;5036298;28;20030;-67
2022/04/07 05:12:56;;;;;;;34.05;6.72;;;7.40;99.90;;;;;;5035876;28;20025;-67
2022/04/07 05:15:21;;;;;;;38.55;7.43;;;7.40;99.90;;;;;;5035858;28;20022;-67
2022/04/07 05:17:53;;;;;;;30.60;7.05;;;7.40;99.90;;;;;;5018033;28;20024;-67
2022/04/07 05:20:19;;;;;;;27.55;5.90;;;7.40;99.90;;;;;;5035708;28;20031;-67
2022/04/07 05:22:45;;;;;;;37.78;7.68;;;7.30;99.90;;;;;;5036022;28;20049;-67
2022/04/07 05:25:11;;;;;;;26.20;7.22;;;7.40;99.90;;;;;;5035951;28;20385;-67
2022/04/07 05:27:37;;;;;;;30.52;6.60;;;7.40;99.90;;;;;;5035894;28;20025;-67
2022/04/07 05:30:04;;;;;;;41.80;7.93;;;7.40;99.90;;;;;;5035561;28;20025;-67
2022/04/07 05:32:30;;;;;;;33.35;6.38;;;7.50;99.90;;;;;;5035525;28;20112;-67
2022/04/07 05:34:55;;;;;;;27.95;5.53;;;7.50;99.90;;;;;;5035482;28;20181;-67
2022/04/07 05:37:21;;;;;;;35.70;5.63;;;7.50;99.90;;;;;;5035421;28;20061;-67
2022/04/07 05:39:47;;;;;;;30.55;5.78;;;7.60;99.90;;;;;;5036181;28;20029;-67
2022/04/07 05:42:13;;;;;;;24.95;4.38;;;7.60;99.90;;;;;;5035055;28;20079;-67
2022/04/07 05:44:38;;;;;;;41.28;6.53;;;7.50;99.90;;;;;;5035211;28;20113;-67
2022/04/07 05:47:04;;;;;;;39.75;6.20;;;7.60;99.90;;;;;;5017529;28;20021;-67
2022/04/07 05:49:30;;;;;;;25.95;7.13;;;7.60;99.90;;;;;;5035145;28;20017;-67
2022/04/07 05:52:00;;;;;;;28.33;6.70;;;7.50;99.90;;;;;;5035157;28;20076;-67
2022/04/07 05:54:27;;;;;;;32.75;8.13;;;7.60;99.90;;;;;;5035491;28;20025;-67
2022/04/07 05:56:52;;;;;;;23.08;7.30;;;7.50;99.90;;;;;;5035357;28;20129;-67
2022/04/07 05:59:18;;;;;;;24.95;6.32;;;7.60;99.90;;;;;;5035032;28;20048;-67
2022/04/07 06:01:43;;;;;;;30.63;7.25;;;7.50;99.90;;;;;;5034879;28;20017;-67
2022/04/07 06:04:09;;;;;;;26.13;6.28;;;7.50;99.90;;;;;;5034924;28;20445;-67
2022/04/07 06:06:34;;;;;;;20.70;5.47;;;7.50;99.90;;;;;;5035096;28;20435;-68
2022/04/07 06:09:00;;;;;;;14.18;4.05;;;7.50;99.90;;;;;;5034670;28;20025;-67
2022/04/07 06:11:25;;;;;;;13.70;3.10;;;7.30;99.90;;;;;;5034834;28;20027;-67
2022/04/07 06:13:51;;;;;;;19.40;2.55;;;7.20;99.90;;;;;;5034857;28;20068;-67
2022/04/07 06:16:17;;;;;;;13.40;1.48;;;7.00;99.90;;;;;;5035027;28;20485;-67
2022/04/07 06:18:42;;;;;;;20.98;2.70;;;6.60;99.90;;;;;;5034845;28;20482;-67
2022/04/07 06:21:08;;;;;;;13.80;1.92;;;6.40;99.90;;;;;;5034776;28;20481;-67
2022/04/07 06:23:33;;;;;;;29.33;2.38;;;6.30;99.90;;;;;;5034561;28;20505;-67
2022/04/07 06:25:59;;;;;;;18.67;2.17;;;6.20;99.90;;;;;;5034815;28;20481;-67
2022/04/07 06:28:24;;;;;;;30.15;3.17;;;6.10;99.90;;;;;;5034534;28;20030;-67
2022/04/07 06:30:54;;;;;;;34.33;3.65;;;6.00;99.90;;;;;;5034454;28;20153;-67
2022/04/07 06:33:21;;;;;;;23.70;3.05;;;6.00;99.90;;;;;;5034397;28;20441;-67
2022/04/07 06:35:48;;;;;;;33.55;4.28;;;6.00;99.90;;;;;;5034891;28;20462;-68
2022/04/07 06:38:14;;;;;;;50.08;4.60;;;6.10;99.90;;;;;;5016521;28;20535;-68
2022/04/07 06:40:39;;;;;;;41.83;5.22;;;6.10;99.90;;;;;;5034146;28;20030;-68
2022/04/07 06:43:05;;;;;;;44.42;4.80;;;6.10;99.90;;;;;;5034466;28;20018;-68
2022/04/07 06:45:30;;;;;;;31.58;4.28;;;6.10;99.90;;;;;;5033964;28;20390;-68
2022/04/07 06:47:56;;;;;;;28.17;3.35;;;6.10;99.90;;;;;;5034112;28;20037;-68
2022/04/07 06:50:26;;;;;;;25.60;2.83;;;6.10;99.90;;;;;;5034279;28;20026;-68
2022/04/07 06:52:52;;;;;;;24.95;3.65;;;6.10;99.90;;;;;;5034031;28;20401;-68
2022/04/07 06:55:18;;;;;;;29.63;3.00;;;6.10;99.90;;;;;;5033274;28;20044;-68
2022/04/07 06:57:52;;;;;;;28.08;3.33;;;6.10;99.90;;;;;;5034038;28;20190;-68
2022/04/07 07:00:20;;;;;;;44.75;4.88;;;6.10;99.90;;;;;;5033956;28;20466;-68
2022/04/07 07:02:47;;;;;;;37.20;3.83;;;6.20;99.90;;;;;;5033969;28;20112;-68
2022/04/07 07:05:13;;;;;;;41.28;4.43;;;6.30;99.90;;;;;;5033869;28;20075;-68
2022/04/07 07:07:38;;;;;;;39.35;5.13;;;6.30;99.90;;;;;;5033802;28;20013;-68
2022/04/07 07:10:04;;;;;;;25.20;3.22;;;6.40;99.90;;;;;;5033620;28;20037;-68
2022/04/07 07:12:30;;;;;;;45.55;4.90;;;6.40;99.90;;;;;;5016862;28;20359;-68
2022/04/07 07:14:55;;;;;;;54.90;5.72;;;6.40;99.90;;;;;;5033648;28;20068;-68
2022/04/07 07:17:21;;;;;;;49.08;5.18;;;6.50;99.90;;;;;;5033629;28;20033;-68
2022/04/07 07:19:46;;;;;;;50.10;5.32;;;6.50;99.90;;;;;;5033652;28;20073;-68
2022/04/07 07:22:12;;;;;;;40.78;5.22;;;6.50;99.90;;;;;;5033471;28;20030;-68
2022/04/07 07:24:37;;;;;;;44.42;6.78;;;6.50;99.90;;;;;;5033803;28;20030;-68
2022/04/07 07:27:03;;;;;;;58.10;6.82;;;6.60;99.90;;;;;;5033523;28;20025;-68
2022/04/07 07:29:29;;;;;;;43.50;4.90;;;6.60;99.90;;;;;;5033457;28;20036;-68
2022/04/07 07:31:55;;;;;;;37.88;5.13;;;6.70;99.90;;;;;;5033446;28;20025;-67
2022/04/07 07:34:20;;;;;;;52.95;5.78;;;6.70;99.90;;;;;;5033517;28;20040;-68
2022/04/07 07:36:46;;;;;;;34.70;4.18;;;6.70;99.90;;;;;;5033684;28;20029;-67
2022/04/07 07:39:12;;;;;;;36.35;4.80;;;6.70;99.90;;;;;;5033343;28;20032;-68
2022/04/07 07:41:38;;;;;;;44.28;5.47;;;6.60;99.90;;;;;;5033539;28;20029;-68
2022/04/07 07:44:04;;;;;;;43.92;5.72;;;6.60;99.90;;;;;;5033317;28;20429;-67
2022/04/07 07:46:30;;;;;;;16.17;2.38;;;6.60;99.90;;;;;;5033289;28;20056;-67
2022/04/07 07:48:56;;;;;;;11.07;1.85;;;6.30;99.90;;;;;;5033277;28;20049;-68
2022/04/07 07:51:22;;;;;;;10.07;1.98;;;5.80;99.90;;;;;;5033375;28;20025;-67
2022/04/07 07:53:47;;;;;;;14.73;1.70;;;5.40;99.90;;;;;;5033521;28;20084;-68
2022/04/07 07:56:13;;;;;;;7.85;1.52;;;5.20;99.90;;;;;;5033185;28;20033;-68
2022/04/07 07:58:39;;;;;;;7.30;1.52;;;5.10;99.90;;;;;;5033326;28;20041;-67
2022/04/07 08:01:04;;;;;;;8.95;1.38;;;5.00;99.90;;;;;;5033113;28;20021;-67
2022/04/07 08:03:30;;;;;;;9.27;1.50;;;4.90;99.90;;;;;;5033174;28;20021;-67
2022/04/07 08:05:55;;;;;;;6.03;1.33;;;4.90;99.90;;;;;;5034742;28;20044;-67
2022/04/07 08:08:21;;;;;;;6.75;1.20;;;4.90;99.90;;;;;;5037197;28;20378;-68
2022/04/07 08:10:46;;;;;;;11.43;2.97;;;4.90;99.90;;;;;;5036977;28;20038;-67
2022/04/07 08:13:12;;;;;;;8.52;1.10;;;4.90;99.90;;;;;;5037269;28;20026;-68
2022/04/07 08:15:38;;;;;;;7.55;0.82;;;4.90;99.90;;;;;;5037527;28;20037;-67
2022/04/07 08:18:04;;;;;;;6.97;1.83;;;4.90;99.90;;;;;;5036950;28;20020;-68
2022/04/07 08:20:29;;;;;;;10.20;1.27;;;4.90;99.90;;;;;;5036751;28;20029;-68
2022/04/07 08:22:55;;;;;;;18.05;1.65;;;5.00;99.90;;;;;;5037402;28;20109;-69
2022/04/07 08:25:21;;;;;;;13.30;1.52;;;5.00;99.90;;;;;;5037395;28;20108;-68
2022/04/07 08:27:46;;;;;;;9.65;1.38;;;5.10;99.90;;;;;;5036769;28;20506;-68
2022/04/07 08:30:12;;;;;;;17.75;2.42;;;5.10;99.90;;;;;;5036920;28;20026;-68
2022/04/07 08:32:38;;;;;;;13.65;1.65;;;5.20;99.90;;;;;;5036936;28;20117;-68
2022/04/07 08:35:04;;;;;;;5.22;1.33;;;5.20;99.90;;;;;;5036831;28;20112;-68
2022/04/07 08:37:30;;;;;;;12.38;1.45;;;5.30;99.90;;;;;;5036872;28;20104;-68
2022/04/07 08:39:55;;;;;;;14.27;1.45;;;5.30;99.90;;;;;;5036419;28;20029;-68
2022/04/07 08:42:26;;;;;;;12.38;1.60;;;5.40;99.90;;;;;;5036919;28;20040;-68
2022/04/07 08:44:52;;;;;;;20.65;1.50;;;5.40;99.90;;;;;;5036744;28;20028;-68
2022/04/07 08:47:20;;;;;;;22.92;2.90;;;5.40;99.90;;;;;;5036422;28;20025;-68
2022/04/07 08:49:48;;;;;;;8.15;1.80;;;5.40;99.90;;;;;;5036427;28;20025;-68
2022/04/07 08:52:14;;;;;;;17.63;2.03;;;5.50;99.90;;;;;;5036313;28;20083;-68
2022/04/07 08:54:40;;;;;;;16.13;2.75;;;5.50;99.90;;;;;;5036297;28;20030;-68
2022/04/07 08:57:06;;;;;;;18.88;2.63;;;5.50;99.90;;;;;;5036507;28;20036;-68
2022/04/07 08:59:32;;;;;;;14.02;2.00;;;5.50;99.90;;;;;;5036127;28;20033;-68
2022/04/07 09:02:05;;;;;;;13.02;2.17;;;5.60;99.90;;;;;;5036313;28;20385;-68
2022/04/07 09:04:40;;;;;;;30.85;2.83;;;5.60;99.90;;;;;;5036426;28;20022;-68
2022/04/07 09:07:07;;;;;;;32.20;3.70;;;5.70;99.90;;;;;;5036101;28;20101;-68
2022/04/07 09:09:36;;;;;;;18.63;2.30;;;5.70;99.90;;;;;;5018081;28;20497;-68
2022/04/07 09:12:01;;;;;;;19.83;2.85;;;5.70;99.90;;;;;;5035993;28;20030;-68
2022/04/07 09:14:34;;;;;;;27.23;2.78;;;5.80;99.90;;;;;;5036199;28;20028;-68
2022/04/07 09:17:00;;;;;;;20.85;3.30;;;5.90;99.90;;;;;;5035721;28;20057;-68
2022/04/07 09:19:28;;;;;;;20.25;2.47;;;5.90;99.90;;;;;;5035496;28;20044;-68
2022/04/07 09:22:08;;;;;;;27.25;3.45;;;5.90;99.90;;;;;;5036502;28;20029;-68
2022/04/07 09:24:36;;;;;;;43.25;5.00;;;6.00;99.90;;;;;;5036696;28;20022;-68
2022/04/07 09:27:06;;;;;;;32.72;3.58;;;6.30;99.90;;;;;;5036335;28;20025;-68
2022/04/07 09:29:42;;;;;;;27.10;2.92;;;6.50;99.90;;;;;;5035509;28;20524;-68
2022/04/07 09:32:21;;;;;;;26.25;3.78;;;6.50;99.90;;;;;;5035867;28;20447;-68
2022/04/07 09:34:55;;;;;;;32.70;2.83;;;6.50;99.90;;;;;;5035840;28;20021;-68
2022/04/07 09:37:22;;;;;;;33.00;3.70;;;6.50;99.90;;;;;;5035528;28;20032;-69
2022/04/07 09:39:50;;;;;;;23.67;2.90;;;6.40;99.90;;;;;;5035438;28;20045;-68
2022/04/07 09:42:23;;;;;;;31.10;3.20;;;6.40;99.90;;;;;;5035423;28;20068;-68
2022/04/07 09:44:53;;;;;;;31.20;4.15;;;6.60;99.90;;;;;;5035703;28;20037;-68
2022/04/07 09:47:20;;;;;;;30.92;2.78;;;6.80;99.90;;;;;;5035616;28;20097;-68
2022/04/07 09:49:46;;;;;;;29.05;3.45;;;6.80;99.90;;;;;;5035218;28;20478;-68
2022/04/07 09:52:13;;;;;;;19.33;3.40;;;6.90;99.90;;;;;;5035230;28;20061;-68
2022/04/07 09:54:47;;;;;;;31.00;3.67;;;7.10;99.90;;;;;;5035268;28;20056;-68
2022/04/07 09:57:14;;;;;;;22.98;2.88;;;7.10;99.90;;;;;;5035497;28;20029;-68
2022/04/07 09:59:42;;;;;;;18.05;2.80;;;7.30;99.90;;;;;;5035008;28;20105;-68
2022/04/07 10:02:08;;;;;;;17.80;2.83;;;7.40;99.90;;;;;;5034980;28;20084;-68
2022/04/07 10:04:34;;;;;;;32.42;3.97;;;7.30;99.90;;;;;;5035867;28;20025;-68
2022/04/07 10:07:04;;;;;;;19.90;2.75;;;7.30;99.90;;;;;;5034904;28;20018;-68
2022/04/07 10:09:30;;;;;;;10.70;2.40;;;7.30;99.90;;;;;;5034857;28;20030;-68
2022/04/07 10:11:58;;;;;;;13.48;2.88;;;7.50;99.90;;;;;;5034860;28;20104;-68
2022/04/07 10:14:26;;;;;;;19.27;3.17;;;7.60;99.90;;;;;;5034850;28;20060;-68
2022/04/07 10:16:52;;;;;;;17.85;3.05;;;7.70;99.90;;;;;;5035051;28;20060;-68
2022/04/07 10:19:32;;;;;;;13.95;2.58;;;7.80;99.90;;;;;;5034622;28;20052;-68
2022/04/07 10:22:11;;;;;;;25.58;5.53;;;7.80;99.90;;;;;;5034610;28;20025;-68
2022/04/07 10:24:41;;;;;;;31.15;2.47;;;7.70;99.90;;;;;;5034682;28;20406;-68
2022/04/07 10:27:09;;;;;;;24.48;3.65;;;7.70;99.90;;;;;;5035129;28;20017;-68
2022/04/07 10:29:37;;;;;;;30.63;4.75;;;7.70;99.90;;;;;;5034423;28;20167;-68
2022/04/07 10:32:12;;;;;;;31.70;4.35;;;7.50;99.90;;;;;;5034465;28;20024;-68
2022/04/07 10:34:58;;;;;;;20.60;3.38;;;7.50;99.90;;;;;;5034406;28;20052;-68
2022/04/07 10:37:39;;;;;;;23.75;4.68;;;7.60;99.90;;;;;;5034858;28;20041;-68
2022/04/07 10:40:32;;;;;;;23.60;2.92;;;7.50;99.90;;;;;;5034593;28;20414;-68
2022/04/07 10:43:10;;;;;;;27.90;6.03;;;7.40;99.90;;;;;;5024512;28;20045;-68
2022/04/07 10:45:38;;;;;;;28.73;4.95;;;7.20;99.90;;;;;;5034262;28;20022;-68
2022/04/07 10:48:20;;;;;;;22.33;4.43;;;6.90;99.90;;;;;;5034208;28;20033;-67
2022/04/07 10:51:07;;;;;;;27.25;7.15;;;6.80;99.90;;;;;;5034200;28;20028;-68
2022/04/07 10:53:34;;;;;;;89.25;19.98;;;6.60;99.90;;;;;;5034093;28;20466;-68
2022/04/07 10:56:05;;;;;;;57.63;12.98;;;6.60;99.90;;;;;;5034093;28;20470;-68
2022/04/07 10:58:50;;;;;;;261.73;79.70;;;6.50;99.90;;;;;;5034056;28;20025;-68
2022/04/07 11:01:28;;;;;;;72.72;19.13;;;6.50;99.90;;;;;;5033945;28;20053;-67
2022/04/07 11:04:19;;;;;;;79.82;23.55;;;6.30;99.90;;;;;;5034166;28;20060;-68
2022/04/07 11:07:07;;;;;;;25.23;6.25;;;6.20;99.90;;;;;;5034105;28;20045;-68
2022/04/07 11:09:57;;;;;;;18.55;2.92;;;6.00;99.90;;;;;;5016047;28;20030;-68
2022/04/07 11:12:29;;;;;;;28.48;4.50;;;6.30;99.90;;;;;;5034627;28;20032;-70
2022/04/07 11:15:01;;;;;;;36.72;5.53;;;6.60;99.90;;;;;;5033919;28;20025;-69
2022/04/07 11:17:30;;;;;;;41.83;6.80;;;6.90;99.90;;;;;;5033931;28;20029;-70
2022/04/07 11:20:05;;;;;;;55.75;7.22;;;7.30;99.90;;;;;;5016488;28;20030;-70
2022/04/07 11:23:05;;;;;;;36.55;5.88;;;7.70;99.90;;;;;;5033825;28;20057;-69
2022/04/07 11:25:31;;;;;;;42.25;5.20;;;8.20;99.90;;;;;;5033926;28;20040;-70
2022/04/07 11:28:15;;;;;;;19.55;4.75;;;8.40;99.90;;;;;;5033811;28;20052;-70
2022/04/07 11:30:52;;;;;;;34.85;5.95;;;8.90;99.90;;;;;;5033826;28;20022;-70
2022/04/07 11:33:20;;;;;;;33.95;5.45;;;8.90;99.90;;;;;;5033648;28;20013;-70
2022/04/07 11:36:02;;;;;;;33.47;6.03;;;9.00;99.90;;;;;;5033444;28;20030;-70
2022/04/07 11:38:47;;;;;;;36.45;5.88;;;9.30;99.90;;;;;;5033314;28;20100;-70
2022/04/07 11:41:14;;;;;;;38.28;6.38;;;9.50;99.90;;;;;;5032864;28;20101;-70
2022/04/07 11:43:45;;;;;;;31.83;5.70;;;9.20;99.90;;;;;;5033411;28;20036;-70
2022/04/07 11:46:14;;;;;;;35.70;7.65;;;9.00;99.90;;;;;;5033379;28;20037;-70
2022/04/07 11:48:40;;;;;;;45.08;6.68;;;9.10;99.90;;;;;;5033249;28;20589;-70
2022/04/07 11:51:17;;;;;;;28.73;4.68;;;9.00;99.90;;;;;;5033283;28;20021;-70
2022/04/07 11:53:52;;;;;;;37.90;5.47;;;9.20;99.90;;;;;;5033565;28;20025;-70
2022/04/07 11:56:21;;;;;;;33.03;4.45;;;9.20;99.90;;;;;;5033569;28;20029;-70
2022/04/07 11:59:07;;;;;;;17.83;3.92;;;9.20;99.90;;;;;;5033455;28;20028;-70
2022/04/07 12:01:36;;;;;;;34.50;2.83;;;8.50;99.90;;;;;;5033408;28;20478;-70
2022/04/07 12:04:04;;;;;;;19.25;3.75;;;7.80;99.90;;;;;;5033160;28;20490;-69
2022/04/07 12:06:31;;;;;;;22.48;2.88;;;7.30;99.90;;;;;;5033125;28;20068;-69
2022/04/07 12:08:58;;;;;;;24.63;3.88;;;6.80;99.90;;;;;;5033123;28;20030;-69
2022/04/07 12:11:25;;;;;;;25.73;3.22;;;6.60;99.90;;;;;;5033419;28;20033;-69
2022/04/07 12:13:53;;;;;;;27.30;3.10;;;6.50;99.90;;;;;;5033369;28;20424;-69
2022/04/07 12:16:20;;;;;;;24.80;3.28;;;6.60;99.90;;;;;;5033054;28;20398;-69
2022/04/07 12:19:12;;;;;;;19.08;2.70;;;6.90;99.90;;;;;;5033302;28;20025;-69
2022/04/07 12:21:58;;;;;;;19.13;2.35;;;7.40;99.90;;;;;;5029579;28;20403;-69
2022/04/07 12:24:26;;;;;;;5.90;1.20;;;7.70;99.90;;;;;;5033282;28;20021;-70
2022/04/07 12:26:53;;;;;;;16.95;1.73;;;7.80;99.90;;;;;;5033128;28;20026;-70
2022/04/07 12:29:21;;;;;;;13.30;2.45;;;7.70;99.90;;;;;;5033143;28;20022;-69
2022/04/07 12:32:06;;;;;;;14.18;2.03;;;7.50;99.90;;;;;;5032946;28;20026;-69
2022/04/07 12:34:32;;;;;;;12.35;1.95;;;7.30;99.90;;;;;;5032922;28;20029;-69
2022/04/07 12:36:58;;;;;;;15.48;2.60;;;7.60;99.90;;;;;;5033049;28;20397;-69
2022/04/07 12:39:33;;;;;;;12.13;2.50;;;8.00;99.90;;;;;;5032728;28;20057;-69
2022/04/07 12:42:08;;;;;;;12.95;2.25;;;8.30;99.90;;;;;;5015103;28;20030;-70
2022/04/07 12:44:35;;;;;;;23.70;2.78;;;8.90;99.90;;;;;;5033474;28;20424;-70
2022/04/07 12:47:08;;;;;;;21.00;3.03;;;9.00;99.90;;;;;;5033086;28;20017;-70
2022/04/07 12:49:35;;;;;;;12.73;2.72;;;9.30;99.90;;;;;;5032825;28;20466;-70